Time;durP1;ratioP1;P1;durP2;ratioP2;P2;SDS_P1;SDS_P2;PMS_P1;PMS_P2;Temp;Humidity;BMP_temperature;BMP_pressure;BME280_temperature;BME280_humidity;BME280_pressure;Samples;Min_cycle;Max_cycle;Signal;HPM_P1;HPM_P2
2021/04/07 00:01:53;;;;;;;;;;;17.00;61.30;;;;;;4948358;28;20001;-76
2021/04/07 00:04:25;;;;;;;;;;;17.00;61.30;;;;;;4961594;28;19922;-76
2021/04/07 00:06:52;;;;;;;;;;;17.00;61.30;;;;;;4946677;28;19918;-76
2021/04/07 00:09:17;;;;;;;;;;;17.00;61.30;;;;;;4961280;28;19938;-77
2021/04/07 00:11:43;;;;;;;;;;;17.00;61.30;;;;;;4954612;28;20356;-76
2021/04/07 00:14:09;;;;;;;;;;;16.90;61.30;;;;;;4944827;28;20012;-75
2021/04/07 00:16:35;;;;;;;;;;;16.90;61.30;;;;;;4960786;28;20372;-76
2021/04/07 00:19:01;;;;;;;;;;;16.90;61.30;;;;;;4944065;28;19954;-75
2021/04/07 00:21:26;;;;;;;;;;;16.90;61.30;;;;;;4953762;28;19922;-75
2021/04/07 00:23:52;;;;;;;;;;;17.00;61.30;;;;;;4957484;28;20380;-76
2021/04/07 00:26:18;;;;;;;;;;;16.90;61.30;;;;;;4949148;28;19915;-77
2021/04/07 00:28:43;;;;;;;;;;;16.90;61.40;;;;;;4946776;28;19915;-75
2021/04/07 00:31:09;;;;;;;;;;;16.90;61.40;;;;;;4952714;28;19915;-76
2021/04/07 00:33:34;;;;;;;;;;;16.90;61.40;;;;;;4953532;28;20390;-75
2021/04/07 00:36:00;;;;;;;;;;;16.90;61.40;;;;;;4945881;28;20013;-76
2021/04/07 00:38:25;;;;;;;;;;;16.90;61.40;;;;;;4948423;28;19968;-76
2021/04/07 00:40:51;;;;;;;;;;;16.90;61.40;;;;;;4946396;28;19926;-76
2021/04/07 00:43:17;;;;;;;;;;;16.90;61.40;;;;;;4951151;28;20290;-76
2021/04/07 00:45:43;;;;;;;;;;;16.90;61.30;;;;;;4946803;28;19918;-76
2021/04/07 00:48:08;;;;;;;;;;;16.90;61.40;;;;;;4950110;28;19915;-75
2021/04/07 00:50:34;;;;;;;;;;;16.90;61.40;;;;;;4950919;28;19915;-75
2021/04/07 00:52:59;;;;;;;;;;;16.90;61.40;;;;;;4951839;28;19915;-75
2021/04/07 00:55:35;;;;;;;;;;;16.90;61.40;;;;;;4983252;28;19919;-76
2021/04/07 00:58:01;;;;;;;;;;;16.90;61.40;;;;;;4948929;28;19914;-77
2021/04/07 01:00:27;;;;;;;;;;;16.90;61.40;;;;;;4953238;28;20256;-75
2021/04/07 01:02:53;;;;;;;;;;;16.90;61.40;;;;;;4950675;28;19915;-76
2021/04/07 01:05:20;;;;;;;;;;;16.90;61.40;;;;;;4946242;28;20005;-76
2021/04/07 01:07:45;;;;;;;;;;;16.90;61.40;;;;;;4970888;28;20068;-75
2021/04/07 01:10:11;;;;;;;;;;;16.90;61.40;;;;;;4962089;28;19922;-76
2021/04/07 01:12:42;;;;;;;;;;;16.90;61.40;;;;;;4935837;28;19923;-75
2021/04/07 01:15:08;;;;;;;;;;;16.80;61.40;;;;;;4940752;29;19915;-76
2021/04/07 01:17:34;;;;;;;;;;;16.90;61.40;;;;;;4945875;28;19949;-75
2021/04/07 01:20:00;;;;;;;;;;;16.90;61.40;;;;;;4942666;28;19985;-76
2021/04/07 01:22:26;;;;;;;;;;;16.90;61.40;;;;;;4973410;28;19915;-76
2021/04/07 01:24:52;;;;;;;;;;;16.90;61.40;;;;;;4951515;28;20368;-75
2021/04/07 01:27:22;;;;;;;;;;;16.90;61.40;;;;;;4943140;28;19925;-76
2021/04/07 01:29:48;;;;;;;;;;;16.80;61.40;;;;;;4948684;29;19952;-76
2021/04/07 01:32:14;;;;;;;;;;;16.80;61.40;;;;;;4946989;28;19914;-76
2021/04/07 01:34:43;;;;;;;;;;;16.90;61.40;;;;;;4946278;28;19915;-76
2021/04/07 01:37:10;;;;;;;;;;;16.90;61.40;;;;;;4957233;28;20373;-76
2021/04/07 01:39:35;;;;;;;;;;;16.80;61.40;;;;;;4949874;28;19980;-77
2021/04/07 01:42:02;;;;;;;;;;;16.80;61.40;;;;;;4950337;28;19949;-76
2021/04/07 01:44:28;;;;;;;;;;;16.80;61.40;;;;;;4938784;28;19926;-77
2021/04/07 01:46:54;;;;;;;;;;;16.80;61.40;;;;;;4942016;28;19960;-77
2021/04/07 01:49:20;;;;;;;;;;;16.90;61.40;;;;;;4938412;28;19915;-76
2021/04/07 01:51:45;;;;;;;;;;;16.80;61.40;;;;;;4949662;28;20022;-77
2021/04/07 01:54:12;;;;;;;;;;;16.80;61.40;;;;;;4941675;28;19915;-77
2021/04/07 01:56:49;;;;;;;;;;;16.80;61.40;;;;;;4951905;28;19972;-77
2021/04/07 01:59:25;;;;;;;;;;;16.80;61.40;;;;;;4963169;28;19961;-77
2021/04/07 02:01:52;;;;;;;;;;;16.80;61.40;;;;;;4952751;28;19957;-77
2021/04/07 02:04:18;;;;;;;;;;;16.80;61.40;;;;;;4948460;28;20016;-77
2021/04/07 02:06:44;;;;;;;;;;;16.80;61.40;;;;;;4938533;28;20341;-77
2021/04/07 02:09:10;;;;;;;;;;;16.80;61.40;;;;;;4945061;28;19956;-77
2021/04/07 02:11:42;;;;;;;;;;;16.80;61.30;;;;;;4947097;28;19958;-76
2021/04/07 02:14:19;;;;;;;;;;;16.80;61.40;;;;;;4949363;28;19922;-77
2021/04/07 02:17:04;;;;;;;;;;;16.80;61.30;;;;;;4982434;28;19918;-77
2021/04/07 02:19:31;;;;;;;;;;;16.80;61.40;;;;;;4951080;28;19914;-76
2021/04/07 02:21:58;;;;;;;;;;;16.80;61.40;;;;;;4975788;28;20441;-77
2021/04/07 02:24:23;;;;;;;;;;;16.80;61.30;;;;;;4989035;28;20449;-77
2021/04/07 02:26:49;;;;;;;;;;;16.80;61.30;;;;;;4949763;28;19918;-77
2021/04/07 02:29:20;;;;;;;;;;;16.80;61.40;;;;;;4936612;28;19969;-76
2021/04/07 02:31:46;;;;;;;;;;;16.80;61.40;;;;;;4953411;28;19918;-76
2021/04/07 02:34:11;;;;;;;;;;;16.80;61.30;;;;;;4953920;28;19998;-77
2021/04/07 02:36:37;;;;;;;;;;;16.80;61.30;;;;;;4942733;28;19938;-77
2021/04/07 02:39:03;;;;;;;;;;;16.80;61.40;;;;;;4971163;28;19915;-77
2021/04/07 02:41:29;;;;;;;;;;;16.80;61.30;;;;;;4956254;28;20005;-77
2021/04/07 02:43:55;;;;;;;;;;;16.80;61.40;;;;;;4977675;28;20068;-76
2021/04/07 02:46:20;;;;;;;;;;;16.80;61.40;;;;;;4946568;28;19915;-77
2021/04/07 02:48:46;;;;;;;;;;;16.80;61.40;;;;;;4933706;28;20003;-76
2021/04/07 02:51:11;;;;;;;;;;;16.80;61.40;;;;;;4950714;28;19957;-76
2021/04/07 02:53:37;;;;;;;;;;;16.80;61.40;;;;;;4958832;28;19937;-76
2021/04/07 02:56:02;;;;;;;;;;;16.80;61.40;;;;;;4948747;28;19921;-77
2021/04/07 02:58:28;;;;;;;;;;;16.80;61.40;;;;;;4962024;28;19914;-76
2021/04/07 03:00:53;;;;;;;;;;;16.80;61.40;;;;;;4947307;28;19957;-77
2021/04/07 03:03:19;;;;;;;;;;;16.80;61.40;;;;;;4947122;28;20283;-77
2021/04/07 03:05:44;;;;;;;;;;;16.80;61.40;;;;;;5006454;28;19956;-76
2021/04/07 03:08:09;;;;;;;;;;;16.80;61.40;;;;;;4948304;28;19954;-76
2021/04/07 03:10:35;;;;;;;;;;;16.80;61.40;;;;;;4976200;28;19914;-76
2021/04/07 03:13:00;;;;;;;;;;;16.80;61.30;;;;;;4943901;28;20291;-76
2021/04/07 03:15:26;;;;;;;;;;;16.80;61.30;;;;;;4943757;28;19925;-76
2021/04/07 03:17:52;;;;;;;;;;;16.80;61.40;;;;;;4945487;28;19925;-76
2021/04/07 03:20:17;;;;;;;;;;;16.80;61.40;;;;;;4943604;28;19915;-77
2021/04/07 03:22:42;;;;;;;;;;;16.80;61.30;;;;;;4979078;28;19915;-76
2021/04/07 03:25:08;;;;;;;;;;;16.80;61.30;;;;;;4952759;28;19923;-77
2021/04/07 03:27:34;;;;;;;;;;;16.80;61.40;;;;;;4940931;28;19965;-76
2021/04/07 03:30:00;;;;;;;;;;;16.80;61.40;;;;;;4957022;28;19915;-76
2021/04/07 03:32:26;;;;;;;;;;;16.80;61.40;;;;;;4981276;28;19960;-76
2021/04/07 03:34:52;;;;;;;;;;;16.80;61.40;;;;;;4952342;28;19950;-77
2021/04/07 03:37:17;;;;;;;;;;;16.80;61.40;;;;;;4938967;28;19958;-78
2021/04/07 03:39:43;;;;;;;;;;;16.80;61.40;;;;;;4968163;28;19921;-77
2021/04/07 03:42:08;;;;;;;;;;;16.80;61.40;;;;;;4978447;28;20372;-77
2021/04/07 03:44:34;;;;;;;;;;;16.70;61.40;;;;;;4951938;28;19969;-77
2021/04/07 03:46:59;;;;;;;;;;;16.80;61.40;;;;;;4943142;28;20018;-77
2021/04/07 03:49:25;;;;;;;;;;;16.70;61.40;;;;;;4974129;28;19915;-76
2021/04/07 03:51:51;;;;;;;;;;;16.70;61.40;;;;;;4975398;28;20005;-77
2021/04/07 03:54:17;;;;;;;;;;;16.70;61.40;;;;;;4963823;28;19962;-77
2021/04/07 03:56:43;;;;;;;;;;;16.80;61.40;;;;;;4949836;28;19914;-77
2021/04/07 03:59:08;;;;;;;;;;;16.70;61.40;;;;;;4939306;28;19915;-76
2021/04/07 04:01:34;;;;;;;;;;;16.70;61.40;;;;;;4945608;28;19915;-76
2021/04/07 04:03:59;;;;;;;;;;;16.70;61.30;;;;;;4945610;28;19960;-76
2021/04/07 04:06:25;;;;;;;;;;;16.70;61.40;;;;;;4947808;28;20292;-77
2021/04/07 04:08:50;;;;;;;;;;;16.70;61.40;;;;;;4948811;28;19915;-77
2021/04/07 04:11:16;;;;;;;;;;;16.70;61.30;;;;;;4993907;28;20418;-76
2021/04/07 04:13:44;;;;;;;;;;;16.70;61.40;;;;;;4972602;28;19922;-77
2021/04/07 04:16:09;;;;;;;;;;;16.70;61.30;;;;;;4961535;28;19962;-76
2021/04/07 04:18:34;;;;;;;;;;;16.80;61.30;;;;;;4945044;28;20011;-77
2021/04/07 04:21:00;;;;;;;;;;;16.70;61.30;;;;;;4950977;28;20029;-76
2021/04/07 04:23:25;;;;;;;;;;;16.70;61.30;;;;;;4951140;28;19922;-77
2021/04/07 04:25:51;;;;;;;;;;;16.70;61.30;;;;;;4941103;28;19919;-76
2021/04/07 04:28:17;;;;;;;;;;;16.70;61.30;;;;;;4954193;28;20391;-77
2021/04/07 04:30:42;;;;;;;;;;;16.70;61.30;;;;;;4951106;28;19939;-76
2021/04/07 04:33:08;;;;;;;;;;;16.70;61.30;;;;;;4944500;28;20008;-76
2021/04/07 04:35:33;;;;;;;;;;;16.70;61.30;;;;;;4955995;28;19917;-76
2021/04/07 04:37:59;;;;;;;;;;;16.70;61.30;;;;;;4946581;28;19914;-76
2021/04/07 04:40:24;;;;;;;;;;;16.70;61.30;;;;;;4945048;28;19914;-76
2021/04/07 04:42:50;;;;;;;;;;;16.70;61.30;;;;;;4952036;28;19919;-76
2021/04/07 04:45:16;;;;;;;;;;;16.70;61.30;;;;;;4951487;28;19930;-77
2021/04/07 04:47:42;;;;;;;;;;;16.70;61.20;;;;;;4950561;28;19953;-76
2021/04/07 04:50:08;;;;;;;;;;;16.70;61.20;;;;;;4966509;28;19946;-76
2021/04/07 04:52:34;;;;;;;;;;;16.70;61.30;;;;;;4978696;28;20017;-76
2021/04/07 04:55:00;;;;;;;;;;;16.70;61.30;;;;;;4961385;28;20444;-76
2021/04/07 04:57:25;;;;;;;;;;;16.70;61.20;;;;;;4950866;28;19915;-76
2021/04/07 04:59:51;;;;;;;;;;;16.70;61.30;;;;;;4950300;28;19929;-76
2021/04/07 05:02:16;;;;;;;;;;;16.70;61.20;;;;;;4974535;28;20323;-77
2021/04/07 05:04:42;;;;;;;;;;;16.70;61.20;;;;;;4941196;28;19930;-76
2021/04/07 05:07:07;;;;;;;;;;;16.70;61.20;;;;;;4953343;28;19915;-76
2021/04/07 05:09:33;;;;;;;;;;;16.70;61.20;;;;;;4950299;28;19915;-76
2021/04/07 05:11:58;;;;;;;;;;;16.70;61.30;;;;;;4951790;28;19914;-76
2021/04/07 05:14:24;;;;;;;;;;;16.70;61.30;;;;;;4959801;28;20018;-77
2021/04/07 05:16:50;;;;;;;;;;;16.70;61.20;;;;;;4956584;28;20368;-76
2021/04/07 05:19:15;;;;;;;;;;;16.70;61.30;;;;;;4970034;28;19957;-77
2021/04/07 05:21:41;;;;;;;;;;;16.70;61.30;;;;;;4946495;28;19915;-76
2021/04/07 05:24:07;;;;;;;;;;;16.70;61.20;;;;;;4948329;28;19926;-76
2021/04/07 05:26:34;;;;;;;;;;;16.70;61.20;;;;;;4952987;28;19921;-76
2021/04/07 05:28:59;;;;;;;;;;;16.70;61.20;;;;;;4942877;28;19915;-77
2021/04/07 05:31:25;;;;;;;;;;;16.70;61.20;;;;;;4938104;28;19980;-76
2021/04/07 05:33:51;;;;;;;;;;;16.70;61.20;;;;;;4939437;28;19925;-76
2021/04/07 05:36:16;;;;;;;;;;;16.70;61.20;;;;;;4946570;28;19914;-76
2021/04/07 05:38:42;;;;;;;;;;;16.70;61.10;;;;;;4969826;28;20445;-77
2021/04/07 05:41:08;;;;;;;;;;;16.70;61.00;;;;;;4949916;28;19921;-77
2021/04/07 05:43:35;;;;;;;;;;;16.70;61.10;;;;;;4946181;28;20391;-77
2021/04/07 05:46:01;;;;;;;;;;;16.70;61.10;;;;;;4936690;28;19919;-77
2021/04/07 05:48:27;;;;;;;;;;;16.70;61.00;;;;;;4970130;28;19915;-76
2021/04/07 05:50:54;;;;;;;;;;;16.70;61.00;;;;;;4947162;28;19928;-76
2021/04/07 05:53:20;;;;;;;;;;;16.70;61.00;;;;;;4958078;28;20813;-76
2021/04/07 05:55:46;;;;;;;;;;;16.70;61.00;;;;;;4946261;28;19919;-76
2021/04/07 05:58:12;;;;;;;;;;;16.70;60.90;;;;;;4940718;28;19950;-76
2021/04/07 06:00:41;;;;;;;;;;;16.80;60.90;;;;;;4946350;28;19969;-76
2021/04/07 06:03:07;;;;;;;;;;;16.80;60.80;;;;;;4947197;28;19918;-76
2021/04/07 06:05:36;;;;;;;;;;;16.80;60.90;;;;;;4943598;28;20438;-76
2021/04/07 06:08:03;;;;;;;;;;;16.80;61.00;;;;;;4979173;28;19918;-76
2021/04/07 06:10:29;;;;;;;;;;;16.80;61.00;;;;;;4945724;28;20342;-76
2021/04/07 06:12:55;;;;;;;;;;;16.70;61.00;;;;;;4943348;28;19942;-76
2021/04/07 06:15:21;;;;;;;;;;;16.70;60.90;;;;;;4946609;28;19946;-76
2021/04/07 06:17:57;;;;;;;;;;;16.80;60.90;;;;;;4943760;28;20579;-76
2021/04/07 06:20:23;;;;;;;;;;;16.80;60.80;;;;;;4984321;28;19926;-76
2021/04/07 06:22:49;;;;;;;;;;;16.70;60.90;;;;;;4947489;28;20000;-76
2021/04/07 06:25:16;;;;;;;;;;;16.80;60.90;;;;;;4949490;28;19972;-77
2021/04/07 06:27:41;;;;;;;;;;;16.80;60.80;;;;;;4950626;28;19918;-76
2021/04/07 06:30:08;;;;;;;;;;;16.80;60.80;;;;;;4949876;28;19925;-76
2021/04/07 06:32:33;;;;;;;;;;;16.80;60.60;;;;;;4950598;28;20005;-77
2021/04/07 06:34:59;;;;;;;;;;;16.80;60.50;;;;;;4975577;28;20049;-78
2021/04/07 06:37:24;;;;;;;;;;;16.80;60.50;;;;;;4947155;28;19969;-77
2021/04/07 06:39:50;;;;;;;;;;;16.90;60.40;;;;;;4948107;28;19918;-76
2021/04/07 06:42:16;;;;;;;;;;;16.80;60.40;;;;;;4942635;28;19921;-76
2021/04/07 06:44:42;;;;;;;;;;;16.80;60.40;;;;;;4946907;28;19930;-76
2021/04/07 06:47:09;;;;;;;;;;;16.80;60.40;;;;;;4947972;28;20206;-76
2021/04/07 06:49:34;;;;;;;;;;;16.80;60.30;;;;;;4946601;28;19923;-76
2021/04/07 06:52:04;;;;;;;;;;;16.80;60.40;;;;;;4942046;28;19914;-77
2021/04/07 06:54:33;;;;;;;;;;;16.80;60.40;;;;;;4936900;28;19921;-76
2021/04/07 06:56:58;;;;;;;;;;;16.80;60.40;;;;;;4949361;28;19918;-77
2021/04/07 06:59:24;;;;;;;;;;;16.80;60.30;;;;;;4943460;28;19922;-77
2021/04/07 07:01:51;;;;;;;;;;;16.80;60.30;;;;;;4970470;28;19922;-77
2021/04/07 07:04:16;;;;;;;;;;;16.80;60.30;;;;;;4950012;28;19914;-77
2021/04/07 07:06:42;;;;;;;;;;;16.80;60.30;;;;;;4952053;28;20347;-77
2021/04/07 07:09:12;;;;;;;;;;;16.90;60.20;;;;;;4946600;28;19918;-77
2021/04/07 07:11:38;;;;;;;;;;;16.90;60.20;;;;;;4942842;28;19919;-77
2021/04/07 07:14:03;;;;;;;;;;;16.90;60.20;;;;;;4968809;28;20326;-77
2021/04/07 07:16:29;;;;;;;;;;;16.90;60.10;;;;;;4939639;28;19958;-77
2021/04/07 07:18:55;;;;;;;;;;;16.90;60.20;;;;;;4941358;28;20018;-78
2021/04/07 07:21:21;;;;;;;;;;;16.90;60.20;;;;;;4970969;28;20302;-79
2021/04/07 07:23:47;;;;;;;;;;;16.80;60.10;;;;;;4948858;28;20132;-77
2021/04/07 07:26:14;;;;;;;;;;;16.80;60.20;;;;;;4946652;28;20017;-78
2021/04/07 07:28:43;;;;;;;;;;;16.90;60.10;;;;;;4958305;28;19921;-77
2021/04/07 07:31:26;;;;;;;;;;;16.90;60.00;;;;;;4950984;28;19915;-78
2021/04/07 07:33:52;;;;;;;;;;;16.90;60.10;;;;;;4947962;28;19914;-76
2021/04/07 07:36:18;;;;;;;;;;;16.90;59.90;;;;;;4938354;28;19914;-78
2021/04/07 07:38:48;;;;;;;;;;;17.00;59.90;;;;;;4939419;28;20257;-77
2021/04/07 07:41:14;;;;;;;;;;;17.00;59.70;;;;;;4945252;28;19989;-78
2021/04/07 07:43:41;;;;;;;;;;;17.00;59.70;;;;;;4946632;28;20026;-77
2021/04/07 07:46:08;;;;;;;;;;;17.00;59.70;;;;;;4944040;28;19972;-77
2021/04/07 07:48:35;;;;;;;;;;;17.00;59.80;;;;;;4951161;28;19922;-77
2021/04/07 07:51:10;;;;;;;;;;;17.00;59.70;;;;;;4950191;28;20363;-77
2021/04/07 07:53:36;;;;;;;;;;;17.00;59.70;;;;;;4950339;28;19921;-77
2021/04/07 07:56:01;;;;;;;;;;;17.00;59.60;;;;;;4949283;28;19914;-77
2021/04/07 07:58:27;;;;;;;;;;;17.00;59.60;;;;;;4952176;28;19923;-77
2021/04/07 08:01:06;;;;;;;;;;;17.00;59.60;;;;;;4953713;28;19945;-77
2021/04/07 08:03:31;;;;;;;;;;;17.10;59.50;;;;;;4952113;28;19929;-77
2021/04/07 08:05:59;;;;;;;;;;;17.00;59.50;;;;;;4952598;28;20367;-77
2021/04/07 08:08:24;;;;;;;;;;;17.10;59.50;;;;;;4979725;28;19918;-77
2021/04/07 08:10:50;;;;;;;;;;;17.10;59.40;;;;;;4954052;28;19922;-77
2021/04/07 08:13:15;;;;;;;;;;;17.10;59.30;;;;;;4952894;28;19915;-77
2021/04/07 08:15:41;;;;;;;;;;;17.10;59.50;;;;;;4962229;28;20286;-76
2021/04/07 08:18:06;;;;;;;;;;;17.10;59.50;;;;;;4943826;28;19915;-78
2021/04/07 08:20:32;;;;;;;;;;;17.10;59.40;;;;;;4952615;28;20391;-77
2021/04/07 08:22:58;;;;;;;;;;;17.10;59.30;;;;;;4953160;28;19919;-77
2021/04/07 08:25:25;;;;;;;;;;;17.10;59.30;;;;;;4947767;28;19919;-77
2021/04/07 08:27:52;;;;;;;;;;;17.10;59.20;;;;;;4944973;28;20001;-77
2021/04/07 08:30:18;;;;;;;;;;;17.10;59.30;;;;;;4949499;28;20360;-77
2021/04/07 08:32:45;;;;;;;;;;;17.20;59.10;;;;;;4946398;28;19925;-79
2021/04/07 08:35:11;;;;;;;;;;;17.20;59.00;;;;;;4974391;28;20360;-77
2021/04/07 08:37:37;;;;;;;;;;;17.10;59.00;;;;;;4943377;28;19921;-77
2021/04/07 08:40:10;;;;;;;;;;;17.10;59.20;;;;;;4935800;28;19915;-76
2021/04/07 08:42:37;;;;;;;;;;;17.10;59.40;;;;;;4948257;28;19922;-77
2021/04/07 08:45:12;;;;;;;;;;;17.10;59.40;;;;;;4957739;28;20017;-78
2021/04/07 08:47:45;;;;;;;;;;;17.10;59.40;;;;;;4949924;28;20021;-77
2021/04/07 08:50:11;;;;;;;;;;;17.00;59.60;;;;;;4946089;28;19914;-77
2021/04/07 08:52:41;;;;;;;;;;;17.00;59.60;;;;;;4946110;28;19960;-78
2021/04/07 08:55:13;;;;;;;;;;;17.00;59.70;;;;;;4945442;28;19941;-77
2021/04/07 08:57:40;;;;;;;;;;;17.00;59.60;;;;;;4946944;28;20363;-77
2021/04/07 09:00:10;;;;;;;;;;;17.00;59.50;;;;;;4945838;28;19915;-77
2021/04/07 09:02:52;;;;;;;;;;;17.00;59.70;;;;;;4947245;28;20025;-76
2021/04/07 09:05:30;;;;;;;;;;;17.00;59.60;;;;;;4948584;28;19938;-77
2021/04/07 09:07:56;;;;;;;;;;;17.00;59.60;;;;;;4945441;28;19922;-77
2021/04/07 09:10:22;;;;;;;;;;;17.00;59.50;;;;;;4944165;28;20428;-76
2021/04/07 09:12:48;;;;;;;;;;;17.00;59.50;;;;;;4950421;28;20093;-78
2021/04/07 09:15:18;;;;;;;;;;;17.00;59.60;;;;;;4950991;28;19927;-77
2021/04/07 09:17:50;;;;;;;;;;;17.10;59.40;;;;;;4949200;28;19914;-77
2021/04/07 09:20:35;;;;;;;;;;;17.20;59.00;;;;;;4946921;28;20402;-77
2021/04/07 09:23:12;;;;;;;;;;;17.10;59.00;;;;;;4945411;28;20013;-76
2021/04/07 09:25:38;;;;;;;;;;;17.10;59.10;;;;;;4948806;28;19966;-77
2021/04/07 09:28:07;;;;;;;;;;;17.10;59.30;;;;;;4950925;28;20009;-77
2021/04/07 09:30:44;;;;;;;;;;;17.00;59.40;;;;;;4948516;28;19941;-77
2021/04/07 09:33:09;;;;;;;;;;;17.00;59.40;;;;;;4956001;28;19961;-77
2021/04/07 09:35:37;;;;;;;;;;;16.90;59.60;;;;;;4938605;28;19958;-76
2021/04/07 09:38:02;;;;;;;;;;;17.00;59.60;;;;;;4975844;28;19921;-77
2021/04/07 09:40:28;;;;;;;;;;;16.90;59.60;;;;;;4943607;28;19915;-78
2021/04/07 09:42:54;;;;;;;;;;;17.00;59.50;;;;;;4944418;28;20001;-77
2021/04/07 09:45:26;;;;;;;;;;;17.00;59.50;;;;;;4947371;28;19922;-78
2021/04/07 09:47:56;;;;;;;;;;;17.00;59.40;;;;;;4949212;28;19915;-77
2021/04/07 09:50:27;;;;;;;;;;;17.00;59.50;;;;;;4949000;28;19969;-77
2021/04/07 09:52:52;;;;;;;;;;;17.00;59.50;;;;;;4948190;28;20013;-77
2021/04/07 09:55:19;;;;;;;;;;;17.00;59.50;;;;;;4949443;28;20029;-77
2021/04/07 09:57:54;;;;;;;;;;;17.00;59.30;;;;;;4945938;28;19922;-77
2021/04/07 10:00:19;;;;;;;;;;;17.00;59.50;;;;;;4957908;28;20014;-78
2021/04/07 10:02:45;;;;;;;;;;;17.00;59.50;;;;;;4946186;28;19957;-76
2021/04/07 10:05:11;;;;;;;;;;;17.00;59.50;;;;;;4946229;28;20050;-76
2021/04/07 10:07:38;;;;;;;;;;;17.00;59.30;;;;;;4945962;28;19915;-76
2021/04/07 10:10:07;;;;;;;;;;;17.10;59.10;;;;;;4946151;28;19915;-76
2021/04/07 10:12:33;;;;;;;;;;;17.20;59.00;;;;;;4945272;28;19915;-77
2021/04/07 10:15:00;;;;;;;;;;;17.00;59.00;;;;;;4948713;28;19923;-76
2021/04/07 10:17:26;;;;;;;;;;;17.00;59.30;;;;;;4945498;28;19954;-76
2021/04/07 10:19:52;;;;;;;;;;;17.00;59.40;;;;;;4957457;28;20382;-77
2021/04/07 10:22:25;;;;;;;;;;;16.90;59.50;;;;;;4945129;28;19954;-76
2021/04/07 10:24:54;;;;;;;;;;;16.90;59.60;;;;;;4943315;28;19922;-76
2021/04/07 10:27:21;;;;;;;;;;;16.80;59.80;;;;;;4973352;28;19922;-76
2021/04/07 10:29:47;;;;;;;;;;;16.80;59.80;;;;;;4944805;28;19918;-80
2021/04/07 10:32:14;;;;;;;;;;;16.80;59.90;;;;;;4976422;28;19919;-78
2021/04/07 10:34:39;;;;;;;;;;;16.80;59.80;;;;;;4940952;28;20001;-76
2021/04/07 10:37:05;;;;;;;;;;;16.80;59.80;;;;;;4975401;28;20025;-76
2021/04/07 10:39:37;;;;;;;;;;;16.90;59.70;;;;;;4942976;28;19922;-76
2021/04/07 10:42:03;;;;;;;;;;;16.90;59.70;;;;;;4941821;28;19915;-78
2021/04/07 10:44:30;;;;;;;;;;;16.90;59.60;;;;;;4944717;28;19930;-77
2021/04/07 10:46:55;;;;;;;;;;;16.90;59.50;;;;;;4950916;28;19915;-76
2021/04/07 10:49:25;;;;;;;;;;;17.00;59.30;;;;;;4944165;28;19918;-77
2021/04/07 10:52:00;;;;;;;;;;;17.10;59.10;;;;;;4957872;28;20025;-76
2021/04/07 10:54:27;;;;;;;;;;;17.00;59.30;;;;;;4972026;28;20393;-77
2021/04/07 10:57:03;;;;;;;;;;;16.90;59.40;;;;;;4941262;28;20005;-76
2021/04/07 10:59:32;;;;;;;;;;;16.90;59.60;;;;;;4948306;28;19921;-76
2021/04/07 11:01:58;;;;;;;;;;;16.90;59.60;;;;;;4947083;28;19968;-76
2021/04/07 11:04:27;;;;;;;;;;;16.90;59.60;;;;;;4979658;28;19926;-78
2021/04/07 11:06:58;;;;;;;;;;;16.90;59.70;;;;;;4952381;28;20273;-76
2021/04/07 11:09:24;;;;;;;;;;;16.80;59.70;;;;;;4943785;28;20006;-76
2021/04/07 11:11:49;;;;;;;;;;;16.80;59.70;;;;;;4939049;28;19915;-76
2021/04/07 11:14:15;;;;;;;;;;;16.80;59.70;;;;;;4946519;28;19915;-76
2021/04/07 11:16:41;;;;;;;;;;;17.00;59.60;;;;;;4956284;28;19958;-76
2021/04/07 11:19:18;;;;;;;;;;;17.00;59.30;;;;;;4973211;28;19919;-76
2021/04/07 11:21:44;;;;;;;;;;;17.00;59.10;;;;;;4938201;28;20005;-75
2021/04/07 11:24:09;;;;;;;;;;;17.10;59.20;;;;;;4948881;28;20013;-76
2021/04/07 11:26:35;;;;;;;;;;;17.00;57.10;;;;;;4946353;28;19918;-76
2021/04/07 11:29:00;;;;;;;;;;;17.00;57.20;;;;;;4948566;28;19915;-76
2021/04/07 11:31:28;;;;;;;;;;;17.00;57.30;;;;;;4975123;28;19914;-76
2021/04/07 11:33:58;;;;;;;;;;;17.00;56.60;;;;;;4945012;28;20342;-76
2021/04/07 11:36:46;;;;;;;;;;;17.00;56.40;;;;;;4978599;28;20398;-76
2021/04/07 11:39:22;;;;;;;;;;;17.10;56.00;;;;;;4946465;28;19914;-77
2021/04/07 11:46:42;;;;;;;;;;;17.30;55.20;;;;;;4944193;28;20005;-75
2021/04/07 11:49:08;;;;;;;;;;;17.30;55.10;;;;;;4955479;28;19958;-76
2021/04/07 11:51:37;;;;;;;;;;;17.30;54.90;;;;;;4941317;28;19938;-76
2021/04/07 11:54:03;;;;;;;;;;;17.40;54.80;;;;;;4949717;28;20279;-77
2021/04/07 11:56:29;;;;;;;;;;;17.40;54.90;;;;;;4944582;28;19914;-77
2021/04/07 11:58:55;;;;;;;;;;;17.40;54.80;;;;;;4965256;28;20006;-76
2021/04/07 12:01:20;;;;;;;;;;;17.30;54.90;;;;;;4968558;28;19918;-76
2021/04/07 12:03:46;;;;;;;;;;;17.40;54.70;;;;;;4955863;28;19969;-76
2021/04/07 12:06:12;;;;;;;;;;;17.40;54.70;;;;;;4978884;28;20337;-76
2021/04/07 12:08:37;;;;;;;;;;;17.40;54.70;;;;;;4947527;28;20332;-74
2021/04/07 12:11:03;;;;;;;;;;;17.40;54.80;;;;;;4942587;28;19915;-74
2021/04/07 12:13:28;;;;;;;;;;;17.50;54.70;;;;;;4952831;28;19914;-75
2021/04/07 12:15:54;;;;;;;;;;;17.50;54.70;;;;;;4949705;28;19945;-74
2021/04/07 12:18:26;;;;;;;;;;;17.40;54.80;;;;;;4946210;28;19915;-74
2021/04/07 12:20:51;;;;;;;;;;;17.40;54.80;;;;;;4943919;28;20324;-75
2021/04/07 12:23:18;;;;;;;;;;;17.40;54.80;;;;;;4946625;28;19965;-74
2021/04/07 12:25:44;;;;;;;;;;;17.40;54.80;;;;;;4942106;28;19922;-75
2021/04/07 12:28:09;;;;;;;;;;;17.40;54.70;;;;;;4952590;28;19914;-75
2021/04/07 12:30:47;;;;;;;;;;;17.40;54.80;;;;;;4949306;28;19914;-75
2021/04/07 12:33:17;;;;;;;;;;;17.50;55.10;;;;;;4959191;28;19915;-72
2021/04/07 12:35:43;;;;;;;;;;;17.40;55.10;;;;;;4947481;28;19921;-75
2021/04/07 12:38:09;;;;;;;;;;;17.40;55.20;;;;;;4949062;28;19914;-74
2021/04/07 12:40:35;;;;;;;;;;;17.50;55.20;;;;;;4945799;28;19969;-75
2021/04/07 12:43:00;;;;;;;;;;;17.50;55.20;;;;;;4980677;28;19935;-74
2021/04/07 12:45:26;;;;;;;;;;;17.50;55.20;;;;;;4945872;28;20419;-74
2021/04/07 12:47:52;;;;;;;;;;;17.50;55.30;;;;;;4939583;28;19915;-74
2021/04/07 12:50:22;;;;;;;;;;;17.40;55.60;;;;;;4947624;28;19944;-75
2021/04/07 12:52:48;;;;;;;;;;;17.30;55.90;;;;;;4947932;28;19918;-75
2021/04/07 12:55:14;;;;;;;;;;;17.30;55.80;;;;;;4948197;28;20322;-75
2021/04/07 12:57:39;;;;;;;;;;;17.40;55.70;;;;;;4938571;28;19915;-75
2021/04/07 13:00:05;;;;;;;;;;;17.40;55.60;;;;;;4955510;28;20028;-76
2021/04/07 13:02:30;;;;;;;;;;;17.40;55.70;;;;;;4956548;28;20374;-76
2021/04/07 13:04:56;;;;;;;;;;;17.40;55.80;;;;;;4953097;28;19922;-76
2021/04/07 13:07:21;;;;;;;;;;;17.40;55.80;;;;;;4953636;28;19914;-76
2021/04/07 13:09:52;;;;;;;;;;;17.40;55.80;;;;;;4939624;28;19964;-77
2021/04/07 13:12:17;;;;;;;;;;;17.50;55.70;;;;;;4942244;28;20392;-77
2021/04/07 13:14:43;;;;;;;;;;;17.50;55.50;;;;;;4946265;28;19936;-76
2021/04/07 13:17:10;;;;;;;;;;;17.50;55.50;;;;;;4944828;28;19921;-76
2021/04/07 13:19:36;;;;;;;;;;;17.60;55.40;;;;;;4939545;28;19915;-76
2021/04/07 13:22:02;;;;;;;;;;;17.50;55.50;;;;;;4946017;28;19922;-76
2021/04/07 13:24:27;;;;;;;;;;;17.50;55.60;;;;;;4946250;28;20371;-76
2021/04/07 13:26:54;;;;;;;;;;;17.40;55.80;;;;;;4938288;28;20028;-76
2021/04/07 13:29:25;;;;;;;;;;;17.30;56.00;;;;;;4948733;28;19922;-76
2021/04/07 13:31:51;;;;;;;;;;;17.30;56.10;;;;;;4941819;28;19914;-77
2021/04/07 13:34:24;;;;;;;;;;;17.30;56.20;;;;;;4941614;28;20319;-76
2021/04/07 13:37:56;;;;;;;;;;;17.30;56.20;;;;;;4934934;28;20303;-76
2021/04/07 13:39:57;;;;;;;;;;;17.30;56.10;;;;;;4939045;28;19915;-76
2021/04/07 13:42:43;;;;;;;;;;;17.30;56.20;;;;;;4935637;28;19915;-76
2021/04/07 13:45:09;;;;;;;;;;;17.30;56.10;;;;;;4942813;28;19922;-77
2021/04/07 13:47:36;;;;;;;;;;;17.30;56.10;;;;;;4965040;28;20389;-76
2021/04/07 13:50:02;;;;;;;;;;;17.30;56.00;;;;;;4940903;28;20395;-76
2021/04/07 13:52:27;;;;;;;;;;;17.30;56.00;;;;;;4946003;28;20255;-76
2021/04/07 13:54:55;;;;;;;;;;;17.30;55.90;;;;;;4939867;28;19921;-76
2021/04/07 13:57:29;;;;;;;;;;;17.30;55.80;;;;;;4972605;28;19922;-75
2021/04/07 13:59:55;;;;;;;;;;;17.40;55.60;;;;;;4947923;28;19923;-76
2021/04/07 14:02:21;;;;;;;;;;;17.40;55.60;;;;;;4943100;28;19919;-75
2021/04/07 14:04:46;;;;;;;;;;;17.30;55.60;;;;;;4946690;28;19922;-75
2021/04/07 14:07:15;;;;;;;;;;;17.30;55.60;;;;;;4939687;28;19921;-75
2021/04/07 14:09:41;;;;;;;;;;;17.30;55.60;;;;;;4977690;28;19915;-75
2021/04/07 14:12:07;;;;;;;;;;;17.30;55.60;;;;;;4956872;28;19980;-76
2021/04/07 14:14:33;;;;;;;;;;;17.30;55.60;;;;;;4973857;28;20310;-75
2021/04/07 14:16:59;;;;;;;;;;;17.30;55.40;;;;;;4944646;28;20276;-76
2021/04/07 14:19:24;;;;;;;;;;;17.40;55.30;;;;;;4951044;28;19915;-75
2021/04/07 14:21:50;;;;;;;;;;;17.30;55.10;;;;;;4959857;28;19913;-75